Aviation Digital Data Service (ADDS)

Output produced by METARs form (1849 UTC 26 September 2021)
found at http://www.aviationweather.gov/metar/data/
 
Forecast for: RJSN (NIIGATA (CIV/JAS, JP)
Text: TAF RJSN 261705Z 2618/2800 14006KT 9999 FEW020
Forecast period: 1800 UTC 26 September 2021 to 0000 UTC 28 September 2021
Forecast type: FROM: standard forecast or significant change
Winds: from the SE (140 degrees) at 7 MPH (6 knots; 3.1 m/s)
Visibility: 6 or more miles (10+ km)
Ceiling: at least 12,000 feet AGL
Clouds: few clouds at 2000 feet AGL
Weather: no significant weather forecast for this period